Time;durP1;ratioP1;P1;durP2;ratioP2;P2;SDS_P1;SDS_P2;PMS_P1;PMS_P2;Temp;Humidity;BMP_temperature;BMP_pressure;BME280_temperature;BME280_humidity;BME280_pressure;Samples;Min_cycle;Max_cycle;Signal;HPM_P1;HPM_P2
2021/04/12 00:00:23;;;;;;;16.05;2.35;;;18.00;47.60;;;;;;4908667;29;20182;-82
2021/04/12 00:03:05;;;;;;;14.63;1.98;;;18.00;47.50;;;;;;4893535;29;20234;-80
2021/04/12 00:05:55;;;;;;;9.82;2.30;;;18.00;47.60;;;;;;4893134;29;20167;-81
2021/04/12 00:08:28;;;;;;;9.98;2.50;;;18.00;47.60;;;;;;4924435;29;20187;-82
2021/04/12 00:11:00;;;;;;;10.90;1.95;;;18.00;47.50;;;;;;4907691;29;20231;-81
2021/04/12 00:14:10;;;;;;;16.17;2.45;;;18.00;47.60;;;;;;4908877;29;20171;-82
2021/04/12 00:16:43;;;;;;;17.25;2.58;;;18.00;47.50;;;;;;4925566;29;20224;-81
2021/04/12 00:19:21;;;;;;;11.65;1.83;;;18.00;47.50;;;;;;4896522;29;20178;-82
2021/04/12 00:21:52;;;;;;;10.90;1.80;;;18.00;47.50;;;;;;4911258;29;20188;-82
2021/04/12 00:24:29;;;;;;;16.60;2.20;;;17.90;47.70;;;;;;4911501;29;20175;-83
2021/04/12 00:27:30;;;;;;;14.75;2.40;;;17.90;47.90;;;;;;4927601;29;20229;-82
2021/04/12 00:30:10;;;;;;;14.98;1.88;;;17.90;47.80;;;;;;4892932;29;20187;-81
2021/04/12 00:32:44;;;;;;;10.32;2.35;;;17.90;47.80;;;;;;4894191;29;20163;-82
2021/04/12 00:35:47;;;;;;;8.80;1.80;;;17.90;48.00;;;;;;4930185;29;20192;-82
2021/04/12 00:38:21;;;;;;;10.85;1.95;;;17.90;47.90;;;;;;4875608;29;20251;-81
2021/04/12 00:41:14;;;;;;;14.68;2.00;;;17.90;48.00;;;;;;4892874;29;20196;-81
2021/04/12 00:43:57;;;;;;;10.23;1.92;;;17.90;47.90;;;;;;4892963;29;20187;-81
2021/04/12 00:46:23;;;;;;;10.25;2.45;;;17.90;48.00;;;;;;4892810;29;20640;-80
2021/04/12 00:49:19;;;;;;;13.65;2.30;;;17.90;48.00;;;;;;4892975;29;20191;-81
2021/04/12 00:52:12;;;;;;;8.30;1.92;;;17.80;47.90;;;;;;4892287;29;20177;-81
2021/04/12 00:55:17;;;;;;;13.73;2.60;;;17.90;48.10;;;;;;4892855;29;20193;-81
2021/04/12 00:58:01;;;;;;;7.75;2.03;;;17.90;48.10;;;;;;4892361;29;20246;-81
2021/04/12 01:00:37;;;;;;;10.30;2.20;;;17.80;48.10;;;;;;4892083;29;20228;-82
2021/04/12 01:03:14;;;;;;;7.75;1.85;;;17.80;48.00;;;;;;4893354;29;20660;-82
2021/04/12 01:06:08;;;;;;;9.60;2.13;;;17.80;47.90;;;;;;4892326;29;20795;-82
2021/04/12 01:09:03;;;;;;;8.85;2.30;;;17.80;47.90;;;;;;4892509;29;20192;-81
2021/04/12 01:11:43;;;;;;;11.00;1.85;;;17.80;47.80;;;;;;4891637;29;20168;-81
2021/04/12 01:14:18;;;;;;;10.65;1.90;;;17.80;48.00;;;;;;4927067;28;20271;-82
2021/04/12 01:17:11;;;;;;;4.85;1.80;;;17.80;48.10;;;;;;4989899;28;20192;-82
2021/04/12 01:20:02;;;;;;;8.57;1.80;;;17.90;47.90;;;;;;4989368;28;20161;-82
2021/04/12 01:22:48;;;;;;;8.05;1.90;;;17.90;47.80;;;;;;4990148;28;20161;-82
2021/04/12 01:25:40;;;;;;;6.05;1.60;;;17.90;47.90;;;;;;4971972;28;20160;-81
2021/04/12 01:28:18;;;;;;;9.65;1.80;;;17.90;48.00;;;;;;4989449;28;20156;-82
2021/04/12 01:30:54;;;;;;;10.80;1.83;;;17.80;48.00;;;;;;4972342;28;20252;-82
2021/04/12 01:33:45;;;;;;;8.52;1.80;;;17.80;48.00;;;;;;4972336;28;20164;-81
2021/04/12 01:36:43;;;;;;;9.88;2.08;;;17.80;48.10;;;;;;4971874;28;20157;-82
2021/04/12 01:39:32;;;;;;;12.15;2.38;;;17.80;48.00;;;;;;4989270;28;20167;-82
2021/04/12 01:42:12;;;;;;;12.32;1.83;;;17.80;48.10;;;;;;4989160;28;20176;-81
2021/04/12 01:44:40;;;;;;;9.07;1.77;;;17.80;48.20;;;;;;4989190;28;20157;-81
2021/04/12 01:47:31;;;;;;;8.82;1.98;;;17.80;48.00;;;;;;4971763;28;20171;-82
2021/04/12 01:50:18;;;;;;;12.25;1.90;;;17.80;48.10;;;;;;4987753;28;20157;-82
2021/04/12 01:53:21;;;;;;;11.48;2.00;;;17.80;48.10;;;;;;4971942;28;20260;-81
2021/04/12 01:56:03;;;;;;;7.88;1.58;;;17.70;48.10;;;;;;4989766;28;20169;-83
2021/04/12 01:58:43;;;;;;;7.40;1.85;;;17.80;48.00;;;;;;4971822;28;20231;-82
2021/04/12 02:01:24;;;;;;;4.97;1.70;;;17.80;47.90;;;;;;4971603;28;20195;-82
2021/04/12 02:03:54;;;;;;;7.95;1.95;;;17.80;48.00;;;;;;4971037;28;20256;-80
2021/04/12 02:06:41;;;;;;;6.95;1.83;;;17.80;48.00;;;;;;4988777;28;20173;-82
2021/04/12 02:09:35;;;;;;;5.63;1.80;;;17.80;48.10;;;;;;4971272;28;20179;-81
2021/04/12 02:12:21;;;;;;;7.70;1.77;;;17.80;48.00;;;;;;4972070;28;20168;-81
2021/04/12 02:15:15;;;;;;;11.45;2.40;;;17.80;48.00;;;;;;4989094;28;20161;-82
2021/04/12 02:18:06;;;;;;;7.20;1.40;;;17.80;48.30;;;;;;4971759;28;20298;-82
2021/04/12 02:21:13;;;;;;;11.23;1.80;;;17.80;47.90;;;;;;4970677;28;20308;-82
2021/04/12 02:23:46;;;;;;;9.13;1.50;;;17.80;48.00;;;;;;4988322;28;20156;-82
2021/04/12 02:26:33;;;;;;;10.45;2.10;;;17.80;47.80;;;;;;4954706;28;20169;-81
2021/04/12 02:29:06;;;;;;;6.03;1.90;;;17.80;48.00;;;;;;4953343;28;20195;-82
2021/04/12 02:31:43;;;;;;;7.32;2.00;;;17.80;48.00;;;;;;4969364;28;20180;-81
2021/04/12 02:34:33;;;;;;;4.90;1.70;;;17.80;47.90;;;;;;4970854;28;20175;-82
2021/04/12 02:37:46;;;;;;;9.32;2.22;;;17.80;48.70;;;;;;4970641;28;20207;-82
2021/04/12 02:40:33;;;;;;;13.80;2.17;;;17.80;48.00;;;;;;4893115;29;20183;-81
2021/04/12 02:43:20;;;;;;;8.35;2.05;;;17.80;48.00;;;;;;4893159;29;20167;-82
2021/04/12 02:46:15;;;;;;;10.20;1.80;;;17.70;48.00;;;;;;4895220;29;20167;-82
2021/04/12 02:49:03;;;;;;;7.45;1.98;;;17.70;48.10;;;;;;4910172;29;20179;-82
2021/04/12 02:51:44;;;;;;;9.93;1.83;;;17.70;48.10;;;;;;4894293;29;20187;-82
2021/04/12 02:54:25;;;;;;;8.05;1.73;;;17.70;48.20;;;;;;4894383;29;20702;-82
2021/04/12 02:56:59;;;;;;;8.95;1.60;;;17.70;48.10;;;;;;4893228;29;20246;-81
2021/04/12 02:59:40;;;;;;;6.40;1.50;;;17.70;48.10;;;;;;4908786;29;20294;-81
2021/04/12 03:02:34;;;;;;;8.75;2.00;;;17.70;48.10;;;;;;4892708;29;20194;-82
2021/04/12 03:05:42;;;;;;;6.45;1.42;;;17.70;48.00;;;;;;4893084;29;20211;-82
2021/04/12 03:08:40;;;;;;;10.57;1.80;;;17.70;48.20;;;;;;4908317;29;20163;-82
2021/04/12 03:11:11;;;;;;;7.93;1.80;;;17.70;48.10;;;;;;4908385;29;20168;-81
2021/04/12 03:14:08;;;;;;;10.00;2.40;;;17.70;48.20;;;;;;4908103;29;20254;-81
2021/04/12 03:16:58;;;;;;;7.15;1.98;;;17.70;48.00;;;;;;4955163;28;20187;-81
2021/04/12 03:19:32;;;;;;;5.10;1.60;;;17.70;48.10;;;;;;4986976;28;20169;-81
2021/04/12 03:22:20;;;;;;;7.80;1.80;;;17.70;48.20;;;;;;4986188;28;20164;-82
2021/04/12 03:24:53;;;;;;;7.47;1.95;;;17.70;48.10;;;;;;4969725;28;20196;-81
2021/04/12 03:27:43;;;;;;;9.80;2.10;;;17.70;48.00;;;;;;4968797;28;20227;-81
2021/04/12 03:30:24;;;;;;;8.77;1.70;;;17.70;48.10;;;;;;4969163;28;20230;-81
2021/04/12 03:33:09;;;;;;;5.20;2.08;;;17.70;48.20;;;;;;4969300;28;20153;-81
2021/04/12 03:36:11;;;;;;;6.85;1.60;;;17.70;48.10;;;;;;4968393;28;20180;-81
2021/04/12 03:39:02;;;;;;;8.00;1.70;;;17.70;48.10;;;;;;4955864;28;20196;-81
2021/04/12 03:42:12;;;;;;;6.32;2.25;;;17.70;48.00;;;;;;4968872;28;20639;-80
2021/04/12 03:45:03;;;;;;;8.95;2.28;;;17.70;48.10;;;;;;4958790;28;20208;-81
2021/04/12 03:47:28;;;;;;;9.40;1.80;;;17.70;48.20;;;;;;4969125;28;20573;-81
2021/04/12 03:50:21;;;;;;;6.13;1.70;;;17.70;48.30;;;;;;4968850;28;20199;-81
2021/04/12 03:53:24;;;;;;;4.95;1.50;;;17.70;48.40;;;;;;4968078;28;20216;-82
2021/04/12 03:56:22;;;;;;;8.38;2.08;;;17.60;48.50;;;;;;4986202;28;20157;-81
2021/04/12 03:59:09;;;;;;;8.18;2.35;;;17.60;48.40;;;;;;4944430;29;20182;-81
2021/04/12 04:01:53;;;;;;;7.70;1.60;;;17.60;48.30;;;;;;4945684;29;20193;-81
2021/04/12 04:04:51;;;;;;;5.28;1.63;;;17.70;48.30;;;;;;4929756;29;20173;-81
2021/04/12 04:07:21;;;;;;;8.68;1.80;;;17.70;48.30;;;;;;4869884;29;20193;-81
2021/04/12 04:10:10;;;;;;;4.88;1.52;;;17.70;48.30;;;;;;4869681;29;20208;-81
2021/04/12 04:13:09;;;;;;;7.03;1.40;;;17.70;48.00;;;;;;4887785;29;20255;-81
2021/04/12 04:16:09;;;;;;;6.72;1.60;;;17.80;47.70;;;;;;4888366;29;20184;-82
2021/04/12 04:18:37;;;;;;;5.47;1.83;;;17.90;47.70;;;;;;4888509;29;20211;-82
2021/04/12 04:21:18;;;;;;;6.85;1.98;;;17.80;47.70;;;;;;4857513;29;20675;-81
2021/04/12 04:24:03;;;;;;;4.70;1.60;;;17.80;47.80;;;;;;4888181;29;20156;-82
2021/04/12 04:26:47;;;;;;;4.05;1.60;;;17.80;47.80;;;;;;4888782;29;20266;-80
2021/04/12 04:29:57;;;;;;;3.92;1.45;;;17.80;47.70;;;;;;4888239;29;20168;-81
2021/04/12 04:32:28;;;;;;;3.47;1.38;;;17.80;47.70;;;;;;4868703;29;20280;-81
2021/04/12 04:35:23;;;;;;;4.72;1.95;;;17.80;47.60;;;;;;4869776;29;20184;-81
2021/04/12 04:38:24;;;;;;;5.70;1.65;;;17.80;47.70;;;;;;4868498;29;20220;-82
2021/04/12 04:40:56;;;;;;;5.20;1.67;;;17.80;48.00;;;;;;4869682;29;20172;-82
2021/04/12 04:43:56;;;;;;;3.47;1.30;;;17.70;47.90;;;;;;4879632;29;20643;-82
2021/04/12 04:46:46;;;;;;;5.47;1.70;;;17.80;47.60;;;;;;4926481;29;20227;-82
2021/04/12 04:49:21;;;;;;;4.72;1.30;;;17.80;47.60;;;;;;4910045;29;20186;-81
2021/04/12 04:52:04;;;;;;;6.50;1.60;;;17.80;47.80;;;;;;4909455;29;20543;-81
2021/04/12 04:54:47;;;;;;;6.00;1.80;;;17.80;47.70;;;;;;4910184;29;20250;-82
2021/04/12 04:57:34;;;;;;;5.45;1.50;;;17.90;47.60;;;;;;4916952;29;20233;-82
2021/04/12 05:00:05;;;;;;;5.53;1.50;;;17.90;47.50;;;;;;4929911;29;20254;-81
2021/04/12 05:02:41;;;;;;;3.03;1.38;;;17.90;47.50;;;;;;4942570;29;20189;-80
2021/04/12 05:05:49;;;;;;;4.47;1.50;;;17.90;47.20;;;;;;4948143;29;20166;-80
2021/04/12 05:08:36;;;;;;;5.50;1.50;;;17.90;47.30;;;;;;4878480;29;20191;-81
2021/04/12 05:11:39;;;;;;;4.35;1.63;;;17.80;47.60;;;;;;4910055;29;20164;-82
2021/04/12 05:14:43;;;;;;;4.18;1.48;;;17.80;47.60;;;;;;4908258;29;20649;-80
2021/04/12 05:17:48;;;;;;;5.75;2.00;;;17.80;47.30;;;;;;4871613;29;20207;-82
2021/04/12 05:20:38;;;;;;;3.75;1.52;;;17.80;47.50;;;;;;4891808;29;20199;-81
2021/04/12 05:23:18;;;;;;;2.60;1.50;;;17.90;47.30;;;;;;4884078;29;20196;-79
2021/04/12 05:26:19;;;;;;;5.95;1.80;;;17.90;47.40;;;;;;4887239;29;20203;-79
2021/04/12 05:29:18;;;;;;;4.43;1.50;;;17.90;47.30;;;;;;4883564;29;20172;-83
2021/04/12 05:32:24;;;;;;;2.50;1.25;;;17.90;47.30;;;;;;4897242;29;20187;-81
2021/04/12 05:34:55;;;;;;;2.70;1.40;;;17.90;47.30;;;;;;4878071;29;20672;-82
2021/04/12 05:37:44;;;;;;;3.42;1.63;;;17.90;47.00;;;;;;4863277;29;20292;-82
2021/04/12 06:13:32;;;;;;;3.95;1.88;;;17.90;47.40;;;;;;5099473;23;20242;-79
2021/04/12 06:16:14;;;;;;;4.32;1.50;;;17.90;47.60;;;;;;4969120;28;20189;-80
2021/04/12 06:19:24;;;;;;;2.58;1.65;;;17.90;47.40;;;;;;4924535;29;20719;-79
2021/04/12 06:22:13;;;;;;;2.80;1.60;;;17.90;47.60;;;;;;4879961;29;20252;-80
2021/04/12 06:25:11;;;;;;;4.47;1.63;;;17.90;47.90;;;;;;4849232;29;20177;-82
2021/04/12 06:27:51;;;;;;;5.40;1.73;;;17.90;47.80;;;;;;4848785;29;20199;-81
2021/04/12 07:01:48;;;;;;;3.92;1.90;;;18.00;47.30;;;;;;5442899;23;20231;-80
2021/04/12 07:04:30;;;;;;;2.63;1.75;;;18.00;47.30;;;;;;5014340;28;20167;-78
2021/04/12 07:07:37;;;;;;;3.67;1.92;;;18.10;47.10;;;;;;4996147;28;20179;-80
2021/04/12 07:10:41;;;;;;;3.55;1.48;;;18.10;47.10;;;;;;4981357;28;20164;-78
2021/04/12 07:13:15;;;;;;;3.60;1.90;;;18.10;47.10;;;;;;4978417;28;20187;-80
2021/04/12 07:16:21;;;;;;;3.05;2.00;;;18.10;47.30;;;;;;4963512;28;20258;-79
2021/04/12 07:19:26;;;;;;;3.80;2.30;;;18.00;47.40;;;;;;5010504;28;20205;-78
2021/04/12 07:22:30;;;;;;;4.43;2.13;;;18.10;47.10;;;;;;4902472;29;20181;-79
2021/04/12 07:25:32;;;;;;;3.10;2.08;;;18.20;46.70;;;;;;4926257;29;20689;-81
2021/04/12 07:28:10;;;;;;;3.17;2.22;;;18.30;46.50;;;;;;4908228;29;20240;-79
2021/04/12 07:31:25;;;;;;;4.35;2.10;;;18.40;46.20;;;;;;4924283;29;20166;-80
2021/04/12 07:34:11;;;;;;;3.25;2.10;;;18.50;46.30;;;;;;4905306;29;20286;-80
2021/04/12 07:37:18;;;;;;;2.90;2.03;;;18.40;46.50;;;;;;4901251;29;20179;-80
2021/04/12 07:40:11;;;;;;;3.33;2.25;;;18.30;46.50;;;;;;4901430;29;20612;-81
2021/04/12 07:42:57;;;;;;;3.20;2.30;;;18.30;46.50;;;;;;4910798;29;20657;-79
2021/04/12 07:46:06;;;;;;;4.10;2.20;;;18.30;46.50;;;;;;4877149;29;20189;-80
2021/04/12 07:49:07;;;;;;;4.35;2.33;;;18.20;46.70;;;;;;4880861;29;20177;-78
2021/04/12 07:52:11;;;;;;;3.58;2.20;;;18.10;46.80;;;;;;4882063;29;20180;-80
2021/04/12 07:55:28;;;;;;;3.88;2.42;;;18.30;46.80;;;;;;4900298;29;20172;-79
2021/04/12 07:58:40;;;;;;;3.88;2.22;;;18.30;46.80;;;;;;4900012;29;20243;-78
2021/04/12 08:01:27;;;;;;;4.68;2.50;;;18.20;46.80;;;;;;4900762;29;20224;-79
2021/04/12 08:08:08;;;;;;;4.90;2.33;;;18.30;46.70;;;;;;4902209;29;20178;-81
2021/04/12 08:11:25;;;;;;;4.22;2.13;;;18.40;46.70;;;;;;4878418;29;20197;-79
2021/04/12 08:14:28;;;;;;;3.22;2.13;;;18.30;46.70;;;;;;4863079;29;20185;-80
2021/04/12 08:17:05;;;;;;;5.40;2.38;;;18.40;46.90;;;;;;4858356;29;20322;-80
2021/04/12 08:19:54;;;;;;;3.58;2.50;;;18.30;47.00;;;;;;4857345;29;20166;-76
2021/04/12 08:22:40;;;;;;;4.93;2.30;;;18.30;47.00;;;;;;5023839;23;20201;-79
2021/04/12 08:25:16;;;;;;;2.95;2.28;;;18.40;46.90;;;;;;4960316;28;20183;-80
2021/04/12 08:27:51;;;;;;;4.18;2.90;;;18.30;46.70;;;;;;4977722;28;20161;-79
2021/04/12 08:30:52;;;;;;;4.53;2.35;;;18.40;46.80;;;;;;4977381;28;20170;-77
2021/04/12 08:34:05;;;;;;;4.78;2.75;;;18.40;46.70;;;;;;4962200;28;20199;-78
2021/04/12 08:37:11;;;;;;;3.97;2.50;;;18.50;46.60;;;;;;4900697;29;20195;-78
2021/04/12 08:39:54;;;;;;;5.30;2.80;;;18.50;46.70;;;;;;4899269;29;20226;-79
2021/04/12 08:42:27;;;;;;;4.18;2.97;;;18.40;46.70;;;;;;4899315;29;20280;-79
2021/04/12 08:48:30;;;;;;;5.10;2.92;;;18.40;46.80;;;;;;5144503;23;20291;-79
2021/04/12 08:51:36;;;;;;;5.93;3.35;;;18.40;46.70;;;;;;4997880;28;20156;-80
2021/04/12 08:54:53;;;;;;;3.75;2.63;;;18.50;46.60;;;;;;4998894;28;20180;-79
2021/04/12 08:57:42;;;;;;;4.72;2.88;;;18.50;46.70;;;;;;5013574;28;20314;-80
2021/04/12 09:00:28;;;;;;;5.82;2.67;;;18.40;46.90;;;;;;5003072;28;20184;-80
2021/04/12 09:18:59;;;;;;;13.38;3.70;;;18.40;47.40;;;;;;5388404;23;20821;-81
2021/04/12 09:21:52;;;;;;;7.85;3.05;;;18.40;47.30;;;;;;4959902;28;20175;-81
2021/04/12 09:24:56;;;;;;;9.20;3.50;;;18.50;47.20;;;;;;4951987;29;20245;-81
2021/04/12 09:27:40;;;;;;;13.68;3.67;;;18.50;47.20;;;;;;4949591;29;20189;-81
2021/04/12 09:30:12;;;;;;;14.07;3.65;;;18.50;47.30;;;;;;4954927;29;20169;-82
2021/04/12 09:33:03;;;;;;;9.77;3.30;;;18.40;47.20;;;;;;4969887;28;20557;-80
2021/04/12 09:35:48;;;;;;;15.63;3.47;;;18.40;47.40;;;;;;4948249;28;20174;-78
2021/04/12 09:38:42;;;;;;;9.90;3.25;;;18.40;47.30;;;;;;4947261;29;20262;-79
2021/04/12 09:41:10;;;;;;;20.77;3.58;;;18.40;47.30;;;;;;4949338;29;20159;-80
2021/04/12 09:43:39;;;;;;;12.70;3.95;;;18.50;47.30;;;;;;4950853;29;20161;-80
2021/04/12 09:46:21;;;;;;;10.88;3.25;;;18.40;47.30;;;;;;4966155;29;20166;-82
2021/04/12 09:49:07;;;;;;;12.13;3.72;;;18.40;47.20;;;;;;4969267;28;20221;-81
2021/04/12 09:52:08;;;;;;;10.88;3.28;;;18.50;47.20;;;;;;4969630;28;20157;-80
2021/04/12 09:55:01;;;;;;;12.15;3.78;;;18.50;47.10;;;;;;4966872;29;20189;-81
2021/04/12 09:57:54;;;;;;;13.55;3.80;;;18.50;47.20;;;;;;4966327;29;20201;-80
2021/04/12 10:00:58;;;;;;;7.10;3.25;;;18.50;47.10;;;;;;4967033;29;20162;-81
2021/04/12 10:03:47;;;;;;;6.13;3.40;;;18.50;47.10;;;;;;4964306;29;20173;-81
2021/04/12 10:06:38;;;;;;;9.98;3.63;;;18.50;47.10;;;;;;4965314;29;20181;-80
2021/04/12 10:09:38;;;;;;;9.27;3.58;;;18.40;47.20;;;;;;4947990;29;20180;-80
2021/04/12 10:12:39;;;;;;;6.75;3.42;;;18.40;47.30;;;;;;4946217;29;20186;-81
2021/04/12 10:15:27;;;;;;;11.07;3.50;;;18.40;47.40;;;;;;4945004;29;20188;-81
2021/04/12 10:18:21;;;;;;;8.50;3.67;;;18.40;47.40;;;;;;4929224;29;20327;-81
2021/04/12 10:20:52;;;;;;;6.70;3.50;;;18.40;47.40;;;;;;4950306;29;20243;-80
2021/04/12 10:23:24;;;;;;;6.35;3.30;;;18.40;47.40;;;;;;4928512;29;20224;-79
2021/04/12 10:26:05;;;;;;;5.75;3.30;;;18.40;47.50;;;;;;4928136;29;20182;-78
2021/04/12 10:28:49;;;;;;;7.22;3.50;;;18.30;47.50;;;;;;4942321;29;20217;-77
2021/04/12 10:31:38;;;;;;;7.65;3.30;;;18.40;47.50;;;;;;4943527;29;20257;-80
2021/04/12 10:34:15;;;;;;;6.20;3.17;;;18.40;47.40;;;;;;4960355;29;20166;-78
2021/04/12 10:37:06;;;;;;;8.13;3.60;;;18.40;47.40;;;;;;4951857;29;20182;-80
2021/04/12 10:39:47;;;;;;;9.73;3.75;;;18.40;47.30;;;;;;4906890;29;20246;-79
2021/04/12 10:42:44;;;;;;;5.45;3.63;;;18.40;47.30;;;;;;4920175;29;20266;-79
2021/04/12 10:45:37;;;;;;;9.50;3.35;;;18.40;47.20;;;;;;4885553;29;20188;-80
2021/04/12 10:48:14;;;;;;;7.63;3.40;;;18.40;47.30;;;;;;4870566;29;20609;-78
2021/04/12 10:51:13;;;;;;;6.07;3.30;;;18.50;47.30;;;;;;4887706;29;20184;-79
2021/04/12 10:53:52;;;;;;;9.32;3.40;;;18.50;47.90;;;;;;4874642;29;20183;-80
2021/04/12 10:56:18;;;;;;;8.60;3.80;;;18.50;47.30;;;;;;4883807;29;20240;-81
2021/04/12 10:59:11;;;;;;;11.25;3.65;;;18.50;47.30;;;;;;4885297;29;20216;-81
2021/04/12 11:01:43;;;;;;;11.95;3.53;;;18.50;47.30;;;;;;4871548;29;20282;-81
2021/04/12 11:04:28;;;;;;;13.20;3.78;;;18.40;47.30;;;;;;4887773;29;20611;-81
2021/04/12 11:07:55;;;;;;;10.48;3.97;;;18.40;47.40;;;;;;4863946;29;20175;-81
2021/04/12 11:10:59;;;;;;;7.57;3.67;;;18.40;47.20;;;;;;4871870;29;20257;-80
2021/04/12 11:13:36;;;;;;;11.30;3.50;;;18.40;47.50;;;;;;4870218;29;20180;-80
2021/04/12 11:16:18;;;;;;;9.98;4.03;;;18.40;47.50;;;;;;4894652;29;20236;-81
2021/04/12 11:19:08;;;;;;;12.20;3.80;;;18.40;47.40;;;;;;4838337;29;20208;-81
2021/04/12 11:21:44;;;;;;;8.18;3.55;;;18.50;47.30;;;;;;4912230;28;20649;-80
2021/04/12 11:24:37;;;;;;;10.57;3.63;;;18.40;47.40;;;;;;4964070;29;20193;-79
2021/04/12 11:27:39;;;;;;;9.75;3.30;;;18.40;47.30;;;;;;4957143;28;20170;-81
2021/04/12 11:30:27;;;;;;;9.45;3.72;;;18.50;47.20;;;;;;4935454;29;20192;-81
2021/04/12 11:33:12;;;;;;;9.25;3.53;;;18.50;47.20;;;;;;4946220;29;20174;-81
2021/04/12 11:36:00;;;;;;;7.88;3.40;;;18.40;47.30;;;;;;4946622;29;20162;-81
2021/04/12 11:38:36;;;;;;;6.65;3.25;;;18.40;47.30;;;;;;4965302;28;20245;-81
2021/04/12 11:41:19;;;;;;;6.28;3.72;;;18.40;47.40;;;;;;4933752;29;20251;-82
2021/04/12 11:43:50;;;;;;;6.50;3.92;;;18.50;47.30;;;;;;4946639;29;20185;-81
2021/04/12 11:46:36;;;;;;;7.93;3.35;;;18.40;47.10;;;;;;4948250;29;20693;-81
2021/04/12 11:49:08;;;;;;;6.40;3.30;;;18.50;47.30;;;;;;4956527;29;20177;-81
2021/04/12 11:51:52;;;;;;;6.38;3.20;;;18.40;47.10;;;;;;4954663;29;20170;-79
2021/04/12 11:54:41;;;;;;;8.02;3.58;;;18.50;47.00;;;;;;4940116;29;20165;-81
2021/04/12 11:57:32;;;;;;;6.38;3.47;;;18.50;47.00;;;;;;4963420;29;20679;-79
2021/04/12 12:00:11;;;;;;;5.78;3.38;;;18.50;47.00;;;;;;4963480;28;20165;-81
2021/04/12 12:02:44;;;;;;;6.63;3.28;;;18.50;47.00;;;;;;4949357;29;20165;-80
2021/04/12 12:06:03;;;;;;;5.10;3.33;;;18.50;46.90;;;;;;4964361;28;20154;-79
2021/04/12 12:08:53;;;;;;;11.00;3.22;;;18.50;47.00;;;;;;4871194;29;20200;-79
2021/04/12 12:11:43;;;;;;;5.13;3.13;;;18.50;47.20;;;;;;4867659;29;20771;-81
2021/04/12 12:14:43;;;;;;;8.77;3.15;;;18.50;47.20;;;;;;4872738;29;20195;-81
2021/04/12 12:17:18;;;;;;;9.27;3.55;;;18.60;47.00;;;;;;4813180;29;20214;-79
2021/04/12 12:19:53;;;;;;;6.53;3.53;;;18.50;46.90;;;;;;4829197;29;20251;-81
2021/04/12 12:22:20;;;;;;;4.60;3.08;;;18.60;46.90;;;;;;4829765;29;20221;-80
2021/04/12 12:25:21;;;;;;;6.10;3.40;;;18.60;46.80;;;;;;4813394;29;20193;-81
2021/04/12 12:28:25;;;;;;;8.45;3.55;;;18.60;46.60;;;;;;4795693;30;20189;-80
2021/04/12 12:30:57;;;;;;;7.50;3.67;;;18.60;46.60;;;;;;4772707;30;20199;-79
2021/04/12 12:33:47;;;;;;;6.82;3.30;;;18.50;46.60;;;;;;4790652;29;20192;-79
2021/04/12 12:36:21;;;;;;;4.88;3.10;;;18.50;46.80;;;;;;4777161;30;20172;-79
2021/04/12 12:38:58;;;;;;;3.85;3.17;;;18.50;46.80;;;;;;4772664;30;20227;-80
2021/04/12 12:41:25;;;;;;;6.13;2.92;;;18.50;46.70;;;;;;4794865;30;20201;-79
2021/04/12 12:44:15;;;;;;;7.18;3.40;;;18.50;46.70;;;;;;4777586;30;20195;-79
2021/04/12 12:47:27;;;;;;;5.13;3.15;;;18.60;46.70;;;;;;4805290;29;20197;-79
2021/04/12 12:49:57;;;;;;;4.95;2.85;;;18.60;46.70;;;;;;4822631;29;20181;-81
2021/04/12 12:52:25;;;;;;;5.75;3.47;;;18.60;46.70;;;;;;4821855;29;20205;-79
2021/04/12 12:55:00;;;;;;;6.75;3.20;;;18.60;46.60;;;;;;4874996;29;20193;-80
2021/04/12 12:57:33;;;;;;;6.82;3.35;;;18.60;46.60;;;;;;4856982;29;20247;-80
2021/04/12 13:00:39;;;;;;;5.05;3.10;;;18.60;46.40;;;;;;4869912;29;20177;-79
2021/04/12 13:03:36;;;;;;;5.65;3.00;;;18.70;46.50;;;;;;4824917;29;20285;-80
2021/04/12 13:06:28;;;;;;;6.10;3.33;;;18.70;46.30;;;;;;4889265;29;20182;-79
2021/04/12 13:09:13;;;;;;;7.20;2.90;;;18.60;46.30;;;;;;4906677;29;20187;-79
2021/04/12 13:11:50;;;;;;;9.13;3.25;;;18.70;46.30;;;;;;4927319;29;20760;-80
2021/04/12 13:14:37;;;;;;;10.30;3.30;;;18.70;46.30;;;;;;4906240;29;20194;-81
2021/04/12 13:17:25;;;;;;;4.03;3.13;;;18.60;46.30;;;;;;4892135;29;20294;-81
2021/04/12 13:19:54;;;;;;;4.57;2.97;;;18.70;46.20;;;;;;4911022;29;20301;-81
2021/04/12 13:22:33;;;;;;;6.45;3.20;;;18.70;46.20;;;;;;4905058;29;20167;-78
2021/04/12 13:25:21;;;;;;;5.32;3.20;;;18.60;46.40;;;;;;4891867;29;20182;-81
2021/04/12 13:27:54;;;;;;;4.43;3.20;;;18.60;46.50;;;;;;4912844;29;20287;-80
2021/04/12 13:31:04;;;;;;;4.88;3.13;;;18.60;46.50;;;;;;4872109;29;20179;-81
2021/04/12 13:33:46;;;;;;;5.00;2.70;;;18.60;46.50;;;;;;4896893;29;20191;-80
2021/04/12 13:36:15;;;;;;;5.43;3.13;;;18.60;46.40;;;;;;4892860;29;20186;-79
2021/04/12 13:38:45;;;;;;;7.10;3.13;;;18.60;46.20;;;;;;4899972;29;20220;-79
2021/04/12 13:41:27;;;;;;;6.95;3.25;;;18.70;46.20;;;;;;4964995;29;20172;-81
2021/04/12 13:44:04;;;;;;;6.20;3.33;;;18.60;46.30;;;;;;4945018;29;20177;-80
2021/04/12 13:46:52;;;;;;;6.60;3.30;;;18.60;46.40;;;;;;4959810;29;20233;-79
2021/04/12 13:49:32;;;;;;;6.63;3.30;;;18.60;46.40;;;;;;4939137;29;20194;-80
2021/04/12 13:52:06;;;;;;;6.93;2.90;;;18.60;46.30;;;;;;4923260;29;20227;-81
2021/04/12 13:55:08;;;;;;;6.32;3.03;;;18.60;46.20;;;;;;4906709;29;20282;-80
2021/04/12 13:57:38;;;;;;;3.92;2.80;;;18.70;46.20;;;;;;4907034;29;20696;-81
2021/04/12 14:00:38;;;;;;;5.72;3.20;;;18.70;46.10;;;;;;4893623;29;20213;-80
2021/04/12 14:03:26;;;;;;;7.32;3.20;;;18.70;46.00;;;;;;4865654;29;20189;-81
2021/04/12 14:06:20;;;;;;;6.20;3.10;;;18.70;46.00;;;;;;4868632;29;20180;-81
2021/04/12 14:08:51;;;;;;;8.90;3.35;;;18.70;46.20;;;;;;4873621;29;20236;-81
2021/04/12 14:11:21;;;;;;;4.00;2.90;;;18.60;46.40;;;;;;4881983;29;20183;-80
2021/04/12 14:13:52;;;;;;;4.50;3.40;;;18.60;46.50;;;;;;4881155;29;20240;-81
2021/04/12 14:16:22;;;;;;;8.63;3.30;;;18.50;46.70;;;;;;4885266;29;20684;-79
2021/04/12 14:18:59;;;;;;;4.60;2.75;;;18.50;46.60;;;;;;4883501;29;20243;-80
2021/04/12 14:21:36;;;;;;;6.13;3.00;;;18.50;46.50;;;;;;4885476;29;20219;-79
2021/04/12 14:24:23;;;;;;;4.75;3.00;;;18.50;46.40;;;;;;4884557;29;20160;-81
2021/04/12 14:27:07;;;;;;;5.93;3.10;;;18.50;46.40;;;;;;4856847;29;20192;-80
2021/04/12 14:29:43;;;;;;;4.05;2.80;;;18.60;46.20;;;;;;4862107;29;20236;-79
2021/04/12 14:32:12;;;;;;;9.15;3.28;;;18.60;46.20;;;;;;4849182;29;20266;-80
2021/04/12 14:34:53;;;;;;;4.72;2.72;;;18.60;46.30;;;;;;4831936;29;20173;-80
2021/04/12 14:37:31;;;;;;;6.80;2.90;;;18.60;46.20;;;;;;4862495;29;20276;-80
2021/04/12 14:40:12;;;;;;;5.38;3.00;;;18.60;46.30;;;;;;4956071;29;20151;-78
2021/04/12 14:42:46;;;;;;;4.30;2.58;;;18.60;46.40;;;;;;4938732;29;20165;-77
2021/04/12 14:45:14;;;;;;;4.90;2.88;;;18.60;46.40;;;;;;4942305;29;20162;-79
2021/04/12 14:48:02;;;;;;;4.65;2.85;;;18.50;46.50;;;;;;4942347;29;20185;-78
2021/04/12 14:50:28;;;;;;;5.63;2.92;;;18.60;46.40;;;;;;4945887;29;20169;-78
2021/04/12 14:52:54;;;;;;;4.60;2.85;;;18.60;46.30;;;;;;4959461;28;20193;-78
2021/04/12 14:55:22;;;;;;;10.52;3.10;;;18.60;46.30;;;;;;4942424;29;20158;-79
2021/04/12 14:57:52;;;;;;;6.05;2.75;;;18.60;46.30;;;;;;4940091;29;20650;-80
2021/04/12 15:00:32;;;;;;;5.78;2.95;;;18.60;46.00;;;;;;4929710;29;20179;-79
2021/04/12 15:03:28;;;;;;;4.63;2.80;;;18.60;46.10;;;;;;4943934;29;20165;-80
2021/04/12 15:05:59;;;;;;;6.50;3.25;;;18.60;46.20;;;;;;4928004;29;20229;-80
2021/04/12 15:08:41;;;;;;;7.65;3.40;;;18.60;46.30;;;;;;4941288;29;20170;-81
2021/04/12 15:11:33;;;;;;;4.53;2.83;;;18.60;46.40;;;;;;4942839;29;20154;-81
2021/04/12 15:14:34;;;;;;;6.30;2.92;;;18.60;46.30;;;;;;4943613;29;20181;-81
2021/04/12 15:17:15;;;;;;;4.80;3.17;;;18.50;46.20;;;;;;4945224;28;20182;-80
2021/04/12 15:19:57;;;;;;;3.17;2.88;;;18.60;46.20;;;;;;4945366;29;20221;-79
2021/04/12 15:22:48;;;;;;;3.88;3.00;;;18.60;46.10;;;;;;4928092;29;20170;-79
2021/04/12 15:25:32;;;;;;;4.55;2.78;;;18.60;46.30;;;;;;4950093;29;20170;-83
2021/04/12 15:28:06;;;;;;;4.82;2.88;;;18.60;46.10;;;;;;4948182;29;20632;-81
2021/04/12 15:31:08;;;;;;;4.80;2.95;;;18.60;46.10;;;;;;4950822;29;20236;-83
2021/04/12 15:33:45;;;;;;;6.72;3.17;;;18.60;46.10;;;;;;4958533;29;20185;-82
2021/04/12 15:36:18;;;;;;;3.95;2.63;;;18.60;46.20;;;;;;4925665;29;20241;-81
2021/04/12 15:38:48;;;;;;;4.28;2.42;;;18.70;46.20;;;;;;4951939;29;20282;-80
2021/04/12 15:41:37;;;;;;;6.63;2.70;;;18.70;46.30;;;;;;4895550;29;20165;-87
2021/04/12 15:44:12;;;;;;;7.03;3.00;;;18.70;46.60;;;;;;4905557;29;20185;-82
2021/04/12 15:46:43;;;;;;;4.03;2.63;;;18.70;46.20;;;;;;4926117;29;20265;-81
2021/04/12 15:49:21;;;;;;;5.57;2.85;;;18.70;46.30;;;;;;4905402;29;20281;-83
2021/04/12 15:52:07;;;;;;;3.83;2.58;;;18.70;46.40;;;;;;4907089;29;20161;-82